sensor_id;sensor_type;location;lat;lon;timestamp;P1;durP1;ratioP1;P2;durP2;ratioP2
79149;SDS011;68563;45.644;13.782;2023-10-13T00:01:53;26.73;;;15.23;;
79149;SDS011;68563;45.644;13.782;2023-10-13T00:04:19;25.30;;;16.15;;
79149;SDS011;68563;45.644;13.782;2023-10-13T00:06:47;28.67;;;15.70;;
79149;SDS011;68563;45.644;13.782;2023-10-13T00:09:13;27.60;;;14.77;;
79149;SDS011;68563;45.644;13.782;2023-10-13T00:11:42;27.00;;;15.82;;
79149;SDS011;68563;45.644;13.782;2023-10-13T00:14:12;28.60;;;16.80;;
79149;SDS011;68563;45.644;13.782;2023-10-13T00:16:41;25.35;;;14.20;;
79149;SDS011;68563;45.644;13.782;2023-10-13T00:19:08;26.27;;;16.17;;
79149;SDS011;68563;45.644;13.782;2023-10-13T00:21:38;28.15;;;15.93;;
79149;SDS011;68563;45.644;13.782;2023-10-13T00:24:03;26.23;;;15.23;;
79149;SDS011;68563;45.644;13.782;2023-10-13T00:26:37;27.10;;;14.38;;
79149;SDS011;68563;45.644;13.782;2023-10-13T00:29:03;30.52;;;14.98;;
79149;SDS011;68563;45.644;13.782;2023-10-13T00:31:32;28.38;;;14.60;;
79149;SDS011;68563;45.644;13.782;2023-10-13T00:34:01;25.90;;;14.85;;
79149;SDS011;68563;45.644;13.782;2023-10-13T00:36:34;27.92;;;15.07;;
79149;SDS011;68563;45.644;13.782;2023-10-13T00:39:00;26.17;;;14.98;;
79149;SDS011;68563;45.644;13.782;2023-10-13T00:41:28;24.23;;;14.40;;
79149;SDS011;68563;45.644;13.782;2023-10-13T00:44:12;23.40;;;14.13;;
79149;SDS011;68563;45.644;13.782;2023-10-13T00:46:41;27.80;;;14.88;;
79149;SDS011;68563;45.644;13.782;2023-10-13T00:49:09;25.80;;;14.60;;
79149;SDS011;68563;45.644;13.782;2023-10-13T00:51:36;28.05;;;15.18;;
79149;SDS011;68563;45.644;13.782;2023-10-13T00:54:06;25.65;;;14.70;;
79149;SDS011;68563;45.644;13.782;2023-10-13T00:56:38;28.77;;;15.07;;
79149;SDS011;68563;45.644;13.782;2023-10-13T00:59:15;28.58;;;14.95;;
79149;SDS011;68563;45.644;13.782;2023-10-13T01:01:41;26.13;;;14.43;;
79149;SDS011;68563;45.644;13.782;2023-10-13T01:04:08;23.35;;;14.40;;
79149;SDS011;68563;45.644;13.782;2023-10-13T01:06:37;25.00;;;13.90;;
79149;SDS011;68563;45.644;13.782;2023-10-13T01:09:04;27.92;;;15.50;;
79149;SDS011;68563;45.644;13.782;2023-10-13T01:11:44;30.75;;;15.43;;
79149;SDS011;68563;45.644;13.782;2023-10-13T01:14:17;26.92;;;14.90;;
79149;SDS011;68563;45.644;13.782;2023-10-13T01:16:46;30.90;;;15.43;;
79149;SDS011;68563;45.644;13.782;2023-10-13T01:19:14;27.15;;;15.23;;
79149;SDS011;68563;45.644;13.782;2023-10-13T01:21:48;24.00;;;15.20;;
79149;SDS011;68563;45.644;13.782;2023-10-13T01:24:14;24.75;;;14.60;;
79149;SDS011;68563;45.644;13.782;2023-10-13T01:26:42;27.33;;;14.57;;
79149;SDS011;68563;45.644;13.782;2023-10-13T01:29:08;23.48;;;14.85;;
79149;SDS011;68563;45.644;13.782;2023-10-13T01:31:43;30.55;;;15.95;;
79149;SDS011;68563;45.644;13.782;2023-10-13T01:34:13;28.90;;;16.67;;
79149;SDS011;68563;45.644;13.782;2023-10-13T01:36:45;25.52;;;14.32;;
79149;SDS011;68563;45.644;13.782;2023-10-13T01:39:10;24.45;;;14.50;;
79149;SDS011;68563;45.644;13.782;2023-10-13T01:41:36;27.15;;;15.82;;
79149;SDS011;68563;45.644;13.782;2023-10-13T01:44:04;25.45;;;14.40;;
79149;SDS011;68563;45.644;13.782;2023-10-13T01:46:29;26.80;;;15.48;;
79149;SDS011;68563;45.644;13.782;2023-10-13T01:48:55;27.05;;;14.32;;
79149;SDS011;68563;45.644;13.782;2023-10-13T01:51:22;26.30;;;15.30;;
79149;SDS011;68563;45.644;13.782;2023-10-13T01:53:48;25.83;;;15.07;;
79149;SDS011;68563;45.644;13.782;2023-10-13T01:56:21;30.05;;;15.18;;
79149;SDS011;68563;45.644;13.782;2023-10-13T01:58:48;31.52;;;16.17;;
79149;SDS011;68563;45.644;13.782;2023-10-13T02:01:13;26.27;;;14.88;;
79149;SDS011;68563;45.644;13.782;2023-10-13T02:03:51;28.35;;;16.00;;
79149;SDS011;68563;45.644;13.782;2023-10-13T02:06:26;32.25;;;18.08;;
79149;SDS011;68563;45.644;13.782;2023-10-13T02:08:57;31.98;;;16.95;;
79149;SDS011;68563;45.644;13.782;2023-10-13T02:11:27;27.13;;;15.25;;
79149;SDS011;68563;45.644;13.782;2023-10-13T02:13:53;27.23;;;15.38;;
79149;SDS011;68563;45.644;13.782;2023-10-13T02:16:22;35.70;;;17.13;;
79149;SDS011;68563;45.644;13.782;2023-10-13T02:18:50;29.42;;;17.10;;
79149;SDS011;68563;45.644;13.782;2023-10-13T02:21:17;32.20;;;15.95;;
79149;SDS011;68563;45.644;13.782;2023-10-13T02:23:42;27.85;;;16.27;;
79149;SDS011;68563;45.644;13.782;2023-10-13T02:26:21;32.72;;;16.58;;
79149;SDS011;68563;45.644;13.782;2023-10-13T02:28:56;29.38;;;15.75;;
79149;SDS011;68563;45.644;13.782;2023-10-13T02:31:28;27.23;;;17.17;;
79149;SDS011;68563;45.644;13.782;2023-10-13T02:33:53;27.67;;;16.58;;
79149;SDS011;68563;45.644;13.782;2023-10-13T02:36:19;31.10;;;17.05;;
79149;SDS011;68563;45.644;13.782;2023-10-13T02:39:01;31.90;;;17.63;;
79149;SDS011;68563;45.644;13.782;2023-10-13T02:41:32;32.85;;;16.85;;
79149;SDS011;68563;45.644;13.782;2023-10-13T02:44:02;31.83;;;16.40;;
79149;SDS011;68563;45.644;13.782;2023-10-13T02:46:31;31.95;;;16.90;;
79149;SDS011;68563;45.644;13.782;2023-10-13T02:48:57;35.33;;;16.65;;
79149;SDS011;68563;45.644;13.782;2023-10-13T02:51:24;30.23;;;16.40;;
79149;SDS011;68563;45.644;13.782;2023-10-13T02:54:02;29.70;;;15.75;;
79149;SDS011;68563;45.644;13.782;2023-10-13T02:56:34;26.23;;;15.13;;
79149;SDS011;68563;45.644;13.782;2023-10-13T02:58:59;32.65;;;16.35;;
79149;SDS011;68563;45.644;13.782;2023-10-13T03:01:30;25.52;;;15.02;;
79149;SDS011;68563;45.644;13.782;2023-10-13T03:03:59;28.60;;;16.10;;
79149;SDS011;68563;45.644;13.782;2023-10-13T03:06:25;27.27;;;15.57;;
79149;SDS011;68563;45.644;13.782;2023-10-13T03:09:19;31.58;;;16.15;;
79149;SDS011;68563;45.644;13.782;2023-10-13T03:11:43;29.77;;;16.60;;
79149;SDS011;68563;45.644;13.782;2023-10-13T03:14:20;22.92;;;15.38;;
79149;SDS011;68563;45.644;13.782;2023-10-13T03:16:51;34.88;;;15.55;;
79149;SDS011;68563;45.644;13.782;2023-10-13T03:19:20;28.92;;;15.45;;
79149;SDS011;68563;45.644;13.782;2023-10-13T03:21:46;33.92;;;18.33;;
79149;SDS011;68563;45.644;13.782;2023-10-13T03:24:20;26.83;;;15.02;;
79149;SDS011;68563;45.644;13.782;2023-10-13T03:26:59;28.50;;;15.32;;
79149;SDS011;68563;45.644;13.782;2023-10-13T03:29:42;28.85;;;15.38;;
79149;SDS011;68563;45.644;13.782;2023-10-13T03:32:14;27.90;;;15.57;;
79149;SDS011;68563;45.644;13.782;2023-10-13T03:34:43;26.33;;;15.52;;
79149;SDS011;68563;45.644;13.782;2023-10-13T03:37:19;28.38;;;15.18;;
79149;SDS011;68563;45.644;13.782;2023-10-13T03:40:03;25.10;;;15.05;;
79149;SDS011;68563;45.644;13.782;2023-10-13T03:42:58;31.92;;;15.55;;
79149;SDS011;68563;45.644;13.782;2023-10-13T03:45:32;26.40;;;14.77;;
79149;SDS011;68563;45.644;13.782;2023-10-13T03:48:11;34.33;;;15.32;;
79149;SDS011;68563;45.644;13.782;2023-10-13T03:50:49;23.63;;;13.63;;
79149;SDS011;68563;45.644;13.782;2023-10-13T03:53:27;22.42;;;12.73;;
79149;SDS011;68563;45.644;13.782;2023-10-13T03:55:53;25.10;;;14.45;;
79149;SDS011;68563;45.644;13.782;2023-10-13T03:58:36;26.88;;;13.25;;
79149;SDS011;68563;45.644;13.782;2023-10-13T04:01:13;30.88;;;14.02;;
79149;SDS011;68563;45.644;13.782;2023-10-13T04:03:42;26.80;;;14.27;;
79149;SDS011;68563;45.644;13.782;2023-10-13T04:06:29;27.55;;;14.50;;
79149;SDS011;68563;45.644;13.782;2023-10-13T04:09:14;29.65;;;15.35;;
79149;SDS011;68563;45.644;13.782;2023-10-13T04:12:04;27.90;;;15.40;;
79149;SDS011;68563;45.644;13.782;2023-10-13T04:14:35;26.67;;;14.60;;
79149;SDS011;68563;45.644;13.782;2023-10-13T04:17:20;29.02;;;14.55;;
79149;SDS011;68563;45.644;13.782;2023-10-13T04:19:51;28.15;;;14.52;;
79149;SDS011;68563;45.644;13.782;2023-10-13T04:22:36;25.00;;;14.95;;
79149;SDS011;68563;45.644;13.782;2023-10-13T04:27:55;24.35;;;13.98;;
79149;SDS011;68563;45.644;13.782;2023-10-13T04:33:17;26.42;;;14.00;;
79149;SDS011;68563;45.644;13.782;2023-10-13T04:36:02;24.13;;;14.30;;
79149;SDS011;68563;45.644;13.782;2023-10-13T04:38:38;25.90;;;14.20;;
79149;SDS011;68563;45.644;13.782;2023-10-13T04:41:20;27.95;;;13.90;;
79149;SDS011;68563;45.644;13.782;2023-10-13T04:46:53;27.52;;;14.55;;
79149;SDS011;68563;45.644;13.782;2023-10-13T04:49:32;26.10;;;14.65;;
79149;SDS011;68563;45.644;13.782;2023-10-13T04:52:00;26.45;;;13.77;;
79149;SDS011;68563;45.644;13.782;2023-10-13T04:57:17;26.58;;;13.95;;
79149;SDS011;68563;45.644;13.782;2023-10-13T05:00:03;28.35;;;14.55;;
79149;SDS011;68563;45.644;13.782;2023-10-13T05:02:36;32.28;;;15.13;;
79149;SDS011;68563;45.644;13.782;2023-10-13T05:05:08;28.65;;;14.98;;
79149;SDS011;68563;45.644;13.782;2023-10-13T05:08:07;28.67;;;16.42;;
79149;SDS011;68563;45.644;13.782;2023-10-13T05:10:51;25.58;;;13.23;;
79149;SDS011;68563;45.644;13.782;2023-10-13T05:13:34;20.15;;;12.50;;
79149;SDS011;68563;45.644;13.782;2023-10-13T05:16:18;29.80;;;14.95;;
79149;SDS011;68563;45.644;13.782;2023-10-13T05:19:02;31.98;;;15.20;;
79149;SDS011;68563;45.644;13.782;2023-10-13T05:21:46;33.53;;;16.02;;
79149;SDS011;68563;45.644;13.782;2023-10-13T05:24:30;28.48;;;16.60;;
79149;SDS011;68563;45.644;13.782;2023-10-13T05:27:14;29.85;;;16.73;;
79149;SDS011;68563;45.644;13.782;2023-10-13T05:29:58;31.67;;;16.13;;
79149;SDS011;68563;45.644;13.782;2023-10-13T05:32:42;24.65;;;16.10;;
79149;SDS011;68563;45.644;13.782;2023-10-13T05:35:26;28.55;;;15.73;;
79149;SDS011;68563;45.644;13.782;2023-10-13T05:38:10;29.98;;;15.20;;
79149;SDS011;68563;45.644;13.782;2023-10-13T05:40:58;32.22;;;16.52;;
79149;SDS011;68563;45.644;13.782;2023-10-13T05:43:43;29.80;;;16.85;;
79149;SDS011;68563;45.644;13.782;2023-10-13T05:46:27;31.63;;;17.00;;
79149;SDS011;68563;45.644;13.782;2023-10-13T05:49:02;31.25;;;16.75;;
79149;SDS011;68563;45.644;13.782;2023-10-13T05:51:30;31.83;;;17.25;;
79149;SDS011;68563;45.644;13.782;2023-10-13T05:54:22;27.40;;;16.92;;
79149;SDS011;68563;45.644;13.782;2023-10-13T05:56:51;30.40;;;16.80;;
79149;SDS011;68563;45.644;13.782;2023-10-13T05:59:36;29.10;;;17.50;;
79149;SDS011;68563;45.644;13.782;2023-10-13T06:02:21;37.35;;;18.58;;
79149;SDS011;68563;45.644;13.782;2023-10-13T06:05:07;31.80;;;17.30;;
79149;SDS011;68563;45.644;13.782;2023-10-13T06:07:53;35.47;;;18.00;;
79149;SDS011;68563;45.644;13.782;2023-10-13T06:10:37;42.22;;;19.05;;
79149;SDS011;68563;45.644;13.782;2023-10-13T06:13:22;31.50;;;17.27;;
79149;SDS011;68563;45.644;13.782;2023-10-13T06:16:07;41.05;;;19.42;;
79149;SDS011;68563;45.644;13.782;2023-10-13T06:18:51;37.40;;;18.95;;
79149;SDS011;68563;45.644;13.782;2023-10-13T06:21:35;31.80;;;18.05;;
79149;SDS011;68563;45.644;13.782;2023-10-13T06:24:19;38.88;;;18.42;;
79149;SDS011;68563;45.644;13.782;2023-10-13T06:27:03;35.88;;;18.42;;
79149;SDS011;68563;45.644;13.782;2023-10-13T06:29:47;35.63;;;17.17;;
79149;SDS011;68563;45.644;13.782;2023-10-13T06:32:13;35.25;;;17.73;;
79149;SDS011;68563;45.644;13.782;2023-10-13T06:34:41;31.48;;;17.50;;
79149;SDS011;68563;45.644;13.782;2023-10-13T06:37:15;35.13;;;18.35;;
79149;SDS011;68563;45.644;13.782;2023-10-13T06:39:51;27.67;;;16.23;;
79149;SDS011;68563;45.644;13.782;2023-10-13T06:42:21;28.35;;;16.33;;
79149;SDS011;68563;45.644;13.782;2023-10-13T06:44:53;34.67;;;16.63;;
79149;SDS011;68563;45.644;13.782;2023-10-13T06:47:22;32.58;;;16.83;;
79149;SDS011;68563;45.644;13.782;2023-10-13T06:49:47;30.10;;;16.98;;
79149;SDS011;68563;45.644;13.782;2023-10-13T06:52:16;29.10;;;17.38;;
79149;SDS011;68563;45.644;13.782;2023-10-13T06:54:42;28.85;;;15.50;;
79149;SDS011;68563;45.644;13.782;2023-10-13T06:57:08;37.65;;;17.45;;
79149;SDS011;68563;45.644;13.782;2023-10-13T06:59:45;33.63;;;17.02;;
79149;SDS011;68563;45.644;13.782;2023-10-13T07:02:14;35.95;;;17.25;;
79149;SDS011;68563;45.644;13.782;2023-10-13T07:04:48;32.28;;;17.23;;
79149;SDS011;68563;45.644;13.782;2023-10-13T07:07:22;41.50;;;16.85;;
79149;SDS011;68563;45.644;13.782;2023-10-13T07:09:48;29.65;;;17.25;;
79149;SDS011;68563;45.644;13.782;2023-10-13T07:12:20;29.40;;;18.17;;
79149;SDS011;68563;45.644;13.782;2023-10-13T07:14:52;33.97;;;17.35;;
79149;SDS011;68563;45.644;13.782;2023-10-13T07:17:24;33.38;;;17.45;;
79149;SDS011;68563;45.644;13.782;2023-10-13T07:19:53;36.40;;;17.23;;
79149;SDS011;68563;45.644;13.782;2023-10-13T07:22:21;35.17;;;18.08;;
79149;SDS011;68563;45.644;13.782;2023-10-13T07:24:47;34.92;;;17.98;;
79149;SDS011;68563;45.644;13.782;2023-10-13T07:27:16;33.50;;;19.90;;
79149;SDS011;68563;45.644;13.782;2023-10-13T07:29:48;34.90;;;17.10;;
79149;SDS011;68563;45.644;13.782;2023-10-13T07:32:38;30.33;;;16.48;;
79149;SDS011;68563;45.644;13.782;2023-10-13T07:35:10;31.88;;;17.10;;
79149;SDS011;68563;45.644;13.782;2023-10-13T07:37:41;29.85;;;16.63;;
79149;SDS011;68563;45.644;13.782;2023-10-13T07:40:10;34.70;;;17.73;;
79149;SDS011;68563;45.644;13.782;2023-10-13T07:42:51;41.28;;;18.55;;
79149;SDS011;68563;45.644;13.782;2023-10-13T07:45:17;34.83;;;17.77;;
79149;SDS011;68563;45.644;13.782;2023-10-13T07:47:49;38.47;;;19.00;;
79149;SDS011;68563;45.644;13.782;2023-10-13T07:50:16;36.80;;;19.27;;
79149;SDS011;68563;45.644;13.782;2023-10-13T07:52:50;33.53;;;17.98;;
79149;SDS011;68563;45.644;13.782;2023-10-13T07:55:30;33.90;;;18.10;;
79149;SDS011;68563;45.644;13.782;2023-10-13T07:57:59;37.10;;;19.05;;
79149;SDS011;68563;45.644;13.782;2023-10-13T08:00:25;38.88;;;18.95;;
79149;SDS011;68563;45.644;13.782;2023-10-13T08:02:59;36.92;;;19.80;;
79149;SDS011;68563;45.644;13.782;2023-10-13T08:05:40;35.85;;;19.13;;
79149;SDS011;68563;45.644;13.782;2023-10-13T08:08:25;37.25;;;19.65;;
79149;SDS011;68563;45.644;13.782;2023-10-13T08:10:51;44.45;;;20.75;;
79149;SDS011;68563;45.644;13.782;2023-10-13T08:13:20;32.90;;;18.77;;
79149;SDS011;68563;45.644;13.782;2023-10-13T08:15:47;40.42;;;20.50;;
79149;SDS011;68563;45.644;13.782;2023-10-13T08:18:13;32.95;;;19.70;;
79149;SDS011;68563;45.644;13.782;2023-10-13T08:21:05;37.95;;;20.52;;
79149;SDS011;68563;45.644;13.782;2023-10-13T08:23:42;38.65;;;20.48;;
79149;SDS011;68563;45.644;13.782;2023-10-13T08:26:22;35.55;;;19.13;;
79149;SDS011;68563;45.644;13.782;2023-10-13T08:28:55;38.83;;;19.63;;
79149;SDS011;68563;45.644;13.782;2023-10-13T08:31:21;35.33;;;18.98;;
79149;SDS011;68563;45.644;13.782;2023-10-13T08:33:50;40.05;;;20.40;;
79149;SDS011;68563;45.644;13.782;2023-10-13T08:36:16;41.25;;;20.73;;
79149;SDS011;68563;45.644;13.782;2023-10-13T08:38:55;37.53;;;21.23;;
79149;SDS011;68563;45.644;13.782;2023-10-13T08:41:21;37.97;;;21.33;;
79149;SDS011;68563;45.644;13.782;2023-10-13T08:43:47;42.83;;;22.00;;
79149;SDS011;68563;45.644;13.782;2023-10-13T08:46:18;42.47;;;23.38;;
79149;SDS011;68563;45.644;13.782;2023-10-13T08:48:58;43.30;;;21.98;;
79149;SDS011;68563;45.644;13.782;2023-10-13T08:51:50;36.55;;;19.48;;
79149;SDS011;68563;45.644;13.782;2023-10-13T08:54:32;35.35;;;21.33;;
79149;SDS011;68563;45.644;13.782;2023-10-13T08:57:03;39.78;;;22.48;;
79149;SDS011;68563;45.644;13.782;2023-10-13T08:59:45;45.47;;;23.15;;
79149;SDS011;68563;45.644;13.782;2023-10-13T09:02:21;37.85;;;21.75;;
79149;SDS011;68563;45.644;13.782;2023-10-13T09:05:07;40.95;;;19.90;;
79149;SDS011;68563;45.644;13.782;2023-10-13T09:07:54;48.03;;;22.30;;
79149;SDS011;68563;45.644;13.782;2023-10-13T09:10:24;47.28;;;22.42;;
79149;SDS011;68563;45.644;13.782;2023-10-13T09:12:58;46.13;;;22.95;;
79149;SDS011;68563;45.644;13.782;2023-10-13T09:18:22;52.72;;;23.67;;
79149;SDS011;68563;45.644;13.782;2023-10-13T09:21:03;40.83;;;22.40;;
79149;SDS011;68563;45.644;13.782;2023-10-13T09:23:48;42.40;;;23.38;;
79149;SDS011;68563;45.644;13.782;2023-10-13T09:26:14;43.40;;;23.08;;
79149;SDS011;68563;45.644;13.782;2023-10-13T09:28:40;41.65;;;22.65;;
79149;SDS011;68563;45.644;13.782;2023-10-13T09:31:05;40.10;;;22.25;;
79149;SDS011;68563;45.644;13.782;2023-10-13T09:33:32;45.15;;;21.88;;
79149;SDS011;68563;45.644;13.782;2023-10-13T09:36:00;41.25;;;22.45;;
79149;SDS011;68563;45.644;13.782;2023-10-13T09:38:30;44.45;;;22.02;;
79149;SDS011;68563;45.644;13.782;2023-10-13T09:40:58;37.80;;;20.50;;
79149;SDS011;68563;45.644;13.782;2023-10-13T09:43:26;40.75;;;22.98;;
79149;SDS011;68563;45.644;13.782;2023-10-13T09:45:59;36.13;;;20.45;;
79149;SDS011;68563;45.644;13.782;2023-10-13T09:48:38;41.95;;;22.90;;
79149;SDS011;68563;45.644;13.782;2023-10-13T09:51:14;44.35;;;26.08;;
79149;SDS011;68563;45.644;13.782;2023-10-13T09:53:47;51.70;;;26.95;;
79149;SDS011;68563;45.644;13.782;2023-10-13T09:56:20;54.90;;;27.85;;
79149;SDS011;68563;45.644;13.782;2023-10-13T09:59:02;44.35;;;24.55;;
79149;SDS011;68563;45.644;13.782;2023-10-13T10:04:13;53.60;;;27.27;;
79149;SDS011;68563;45.644;13.782;2023-10-13T10:06:54;59.75;;;28.33;;
79149;SDS011;68563;45.644;13.782;2023-10-13T10:09:30;55.25;;;28.38;;
79149;SDS011;68563;45.644;13.782;2023-10-13T10:17:21;73.63;;;34.78;;
79149;SDS011;68563;45.644;13.782;2023-10-13T10:19:48;129.73;;;54.90;;
79149;SDS011;68563;45.644;13.782;2023-10-13T10:22:27;123.45;;;51.97;;
79149;SDS011;68563;45.644;13.782;2023-10-13T10:24:56;94.38;;;44.83;;
79149;SDS011;68563;45.644;13.782;2023-10-13T10:27:32;61.83;;;32.17;;
79149;SDS011;68563;45.644;13.782;2023-10-13T10:29:59;49.22;;;27.05;;
79149;SDS011;68563;45.644;13.782;2023-10-13T10:32:37;51.95;;;28.65;;
79149;SDS011;68563;45.644;13.782;2023-10-13T10:35:10;53.78;;;26.80;;
79149;SDS011;68563;45.644;13.782;2023-10-13T10:37:45;51.85;;;26.30;;
79149;SDS011;68563;45.644;13.782;2023-10-13T10:40:14;58.20;;;29.70;;
79149;SDS011;68563;45.644;13.782;2023-10-13T10:42:59;57.00;;;28.13;;
79149;SDS011;68563;45.644;13.782;2023-10-13T10:45:26;54.88;;;27.77;;
79149;SDS011;68563;45.644;13.782;2023-10-13T10:47:58;100.30;;;42.03;;
79149;SDS011;68563;45.644;13.782;2023-10-13T10:50:25;128.38;;;51.83;;
79149;SDS011;68563;45.644;13.782;2023-10-13T10:53:00;95.20;;;42.70;;
79149;SDS011;68563;45.644;13.782;2023-10-13T10:55:37;53.63;;;28.02;;
79149;SDS011;68563;45.644;13.782;2023-10-13T10:58:03;45.08;;;24.85;;
79149;SDS011;68563;45.644;13.782;2023-10-13T11:00:31;45.80;;;25.88;;
79149;SDS011;68563;45.644;13.782;2023-10-13T11:03:11;45.53;;;24.40;;
79149;SDS011;68563;45.644;13.782;2023-10-13T11:05:43;45.70;;;25.23;;
79149;SDS011;68563;45.644;13.782;2023-10-13T11:08:21;44.25;;;24.63;;
79149;SDS011;68563;45.644;13.782;2023-10-13T11:10:56;40.33;;;24.08;;
79149;SDS011;68563;45.644;13.782;2023-10-13T11:13:21;49.60;;;26.13;;
79149;SDS011;68563;45.644;13.782;2023-10-13T11:15:47;48.67;;;24.98;;
79149;SDS011;68563;45.644;13.782;2023-10-13T11:18:13;49.47;;;25.50;;
79149;SDS011;68563;45.644;13.782;2023-10-13T11:20:46;48.50;;;25.48;;
79149;SDS011;68563;45.644;13.782;2023-10-13T11:23:14;47.33;;;25.67;;
79149;SDS011;68563;45.644;13.782;2023-10-13T11:25:40;45.05;;;23.98;;
79149;SDS011;68563;45.644;13.782;2023-10-13T11:30:42;57.35;;;27.42;;
79149;SDS011;68563;45.644;13.782;2023-10-13T11:33:10;41.75;;;24.73;;
79149;SDS011;68563;45.644;13.782;2023-10-13T11:35:39;44.03;;;24.75;;
79149;SDS011;68563;45.644;13.782;2023-10-13T11:38:19;43.25;;;23.38;;
79149;SDS011;68563;45.644;13.782;2023-10-13T11:40:57;49.15;;;25.35;;
79149;SDS011;68563;45.644;13.782;2023-10-13T11:43:40;44.42;;;26.23;;
79149;SDS011;68563;45.644;13.782;2023-10-13T11:46:11;48.78;;;28.73;;
79149;SDS011;68563;45.644;13.782;2023-10-13T11:48:39;47.42;;;23.80;;
79149;SDS011;68563;45.644;13.782;2023-10-13T11:51:30;47.92;;;26.02;;
79149;SDS011;68563;45.644;13.782;2023-10-13T11:53:57;42.75;;;24.13;;
79149;SDS011;68563;45.644;13.782;2023-10-13T11:56:23;57.05;;;27.80;;
79149;SDS011;68563;45.644;13.782;2023-10-13T11:58:50;45.80;;;26.50;;
79149;SDS011;68563;45.644;13.782;2023-10-13T12:01:16;52.05;;;27.27;;
79149;SDS011;68563;45.644;13.782;2023-10-13T12:03:46;49.15;;;26.60;;
79149;SDS011;68563;45.644;13.782;2023-10-13T12:06:32;49.22;;;25.98;;
79149;SDS011;68563;45.644;13.782;2023-10-13T12:09:08;43.88;;;26.33;;
79149;SDS011;68563;45.644;13.782;2023-10-13T12:11:37;53.70;;;28.33;;
79149;SDS011;68563;45.644;13.782;2023-10-13T12:14:10;44.13;;;24.42;;
79149;SDS011;68563;45.644;13.782;2023-10-13T12:16:49;50.88;;;24.75;;
79149;SDS011;68563;45.644;13.782;2023-10-13T12:19:24;45.03;;;25.00;;
79149;SDS011;68563;45.644;13.782;2023-10-13T12:21:53;48.95;;;27.85;;
79149;SDS011;68563;45.644;13.782;2023-10-13T12:24:27;45.03;;;23.90;;
79149;SDS011;68563;45.644;13.782;2023-10-13T12:27:08;51.70;;;26.20;;
79149;SDS011;68563;45.644;13.782;2023-10-13T12:30:00;53.67;;;26.40;;
79149;SDS011;68563;45.644;13.782;2023-10-13T12:32:32;39.95;;;23.83;;
79149;SDS011;68563;45.644;13.782;2023-10-13T12:34:59;42.00;;;23.63;;
79149;SDS011;68563;45.644;13.782;2023-10-13T12:37:41;54.85;;;25.02;;
79149;SDS011;68563;45.644;13.782;2023-10-13T12:40:08;42.92;;;23.75;;
79149;SDS011;68563;45.644;13.782;2023-10-13T12:42:53;53.67;;;23.75;;
79149;SDS011;68563;45.644;13.782;2023-10-13T12:45:41;39.58;;;22.33;;
79149;SDS011;68563;45.644;13.782;2023-10-13T12:51:10;44.42;;;25.02;;
79149;SDS011;68563;45.644;13.782;2023-10-13T12:53:47;45.10;;;25.98;;
79149;SDS011;68563;45.644;13.782;2023-10-13T12:56:13;68.03;;;27.25;;
79149;SDS011;68563;45.644;13.782;2023-10-13T12:58:40;53.80;;;24.80;;
79149;SDS011;68563;45.644;13.782;2023-10-13T13:01:06;46.80;;;24.95;;
79149;SDS011;68563;45.644;13.782;2023-10-13T13:03:32;54.15;;;26.70;;
79149;SDS011;68563;45.644;13.782;2023-10-13T13:05:58;47.55;;;23.75;;
79149;SDS011;68563;45.644;13.782;2023-10-13T13:08:23;43.80;;;25.90;;
79149;SDS011;68563;45.644;13.782;2023-10-13T13:10:49;52.40;;;26.55;;
79149;SDS011;68563;45.644;13.782;2023-10-13T13:13:14;46.13;;;25.05;;
79149;SDS011;68563;45.644;13.782;2023-10-13T13:15:41;48.53;;;25.67;;
79149;SDS011;68563;45.644;13.782;2023-10-13T13:18:07;44.63;;;23.40;;
79149;SDS011;68563;45.644;13.782;2023-10-13T13:20:37;42.20;;;23.48;;
79149;SDS011;68563;45.644;13.782;2023-10-13T13:23:04;42.10;;;23.55;;
79149;SDS011;68563;45.644;13.782;2023-10-13T13:25:30;43.75;;;24.10;;
79149;SDS011;68563;45.644;13.782;2023-10-13T13:27:56;47.72;;;25.60;;
79149;SDS011;68563;45.644;13.782;2023-10-13T13:30:24;48.85;;;26.63;;
79149;SDS011;68563;45.644;13.782;2023-10-13T13:32:55;53.95;;;26.65;;
79149;SDS011;68563;45.644;13.782;2023-10-13T13:35:21;48.25;;;26.30;;
79149;SDS011;68563;45.644;13.782;2023-10-13T13:37:46;44.75;;;24.65;;
79149;SDS011;68563;45.644;13.782;2023-10-13T13:40:12;44.33;;;23.73;;
79149;SDS011;68563;45.644;13.782;2023-10-13T13:42:47;46.17;;;24.92;;
79149;SDS011;68563;45.644;13.782;2023-10-13T13:45:16;45.67;;;23.17;;
79149;SDS011;68563;45.644;13.782;2023-10-13T13:47:52;41.70;;;25.33;;
79149;SDS011;68563;45.644;13.782;2023-10-13T13:50:26;40.53;;;23.80;;
79149;SDS011;68563;45.644;13.782;2023-10-13T13:52:54;44.38;;;24.08;;
79149;SDS011;68563;45.644;13.782;2023-10-13T13:55:23;51.30;;;25.88;;
79149;SDS011;68563;45.644;13.782;2023-10-13T13:57:49;41.55;;;23.20;;
79149;SDS011;68563;45.644;13.782;2023-10-13T14:00:18;47.45;;;25.05;;
79149;SDS011;68563;45.644;13.782;2023-10-13T14:03:06;47.38;;;25.95;;
79149;SDS011;68563;45.644;13.782;2023-10-13T14:05:42;45.58;;;25.17;;
79149;SDS011;68563;45.644;13.782;2023-10-13T14:08:08;50.72;;;25.63;;
79149;SDS011;68563;45.644;13.782;2023-10-13T14:10:37;43.38;;;24.60;;
79149;SDS011;68563;45.644;13.782;2023-10-13T14:13:23;46.92;;;26.85;;
79149;SDS011;68563;45.644;13.782;2023-10-13T14:16:09;51.97;;;26.85;;
79149;SDS011;68563;45.644;13.782;2023-10-13T14:18:42;47.33;;;25.70;;
79149;SDS011;68563;45.644;13.782;2023-10-13T14:21:08;57.00;;;26.52;;
79149;SDS011;68563;45.644;13.782;2023-10-13T14:23:33;46.75;;;27.50;;
79149;SDS011;68563;45.644;13.782;2023-10-13T14:25:59;49.53;;;26.73;;
79149;SDS011;68563;45.644;13.782;2023-10-13T14:28:25;47.70;;;27.00;;
79149;SDS011;68563;45.644;13.782;2023-10-13T14:30:59;47.30;;;25.50;;
79149;SDS011;68563;45.644;13.782;2023-10-13T14:33:24;51.15;;;27.08;;
79149;SDS011;68563;45.644;13.782;2023-10-13T14:35:50;47.17;;;26.63;;
79149;SDS011;68563;45.644;13.782;2023-10-13T14:38:16;45.00;;;26.13;;
79149;SDS011;68563;45.644;13.782;2023-10-13T14:40:41;51.38;;;26.02;;
79149;SDS011;68563;45.644;13.782;2023-10-13T14:43:06;43.45;;;25.98;;
79149;SDS011;68563;45.644;13.782;2023-10-13T14:45:35;45.47;;;27.00;;
79149;SDS011;68563;45.644;13.782;2023-10-13T14:48:00;51.50;;;25.45;;
79149;SDS011;68563;45.644;13.782;2023-10-13T14:50:26;43.28;;;25.08;;
79149;SDS011;68563;45.644;13.782;2023-10-13T14:52:53;50.42;;;24.30;;
79149;SDS011;68563;45.644;13.782;2023-10-13T14:55:18;44.30;;;26.10;;
79149;SDS011;68563;45.644;13.782;2023-10-13T14:57:45;44.72;;;24.58;;
79149;SDS011;68563;45.644;13.782;2023-10-13T15:00:12;45.80;;;26.38;;
79149;SDS011;68563;45.644;13.782;2023-10-13T15:02:39;45.83;;;25.10;;
79149;SDS011;68563;45.644;13.782;2023-10-13T15:05:08;52.88;;;25.40;;
79149;SDS011;68563;45.644;13.782;2023-10-13T15:07:41;43.92;;;23.88;;
79149;SDS011;68563;45.644;13.782;2023-10-13T15:10:10;41.03;;;23.58;;